sensor_id;sensor_type;location;lat;lon;timestamp;P1;durP1;ratioP1;P2;durP2;ratioP2
22268;SDS011;11303;50.772;19.670;2024-02-26T00:01:41;50.65;;;22.92;;
22268;SDS011;11303;50.772;19.670;2024-02-26T00:03:46;63.40;;;35.40;;
22268;SDS011;11303;50.772;19.670;2024-02-26T00:05:48;47.78;;;23.23;;
22268;SDS011;11303;50.772;19.670;2024-02-26T00:07:50;56.17;;;25.70;;
22268;SDS011;11303;50.772;19.670;2024-02-26T00:09:52;52.88;;;23.45;;
22268;SDS011;11303;50.772;19.670;2024-02-26T00:11:53;50.20;;;23.05;;
22268;SDS011;11303;50.772;19.670;2024-02-26T00:13:56;48.78;;;22.17;;
22268;SDS011;11303;50.772;19.670;2024-02-26T00:15:59;58.88;;;27.30;;
22268;SDS011;11303;50.772;19.670;2024-02-26T00:18:01;61.85;;;29.80;;
22268;SDS011;11303;50.772;19.670;2024-02-26T00:20:03;61.88;;;30.85;;
22268;SDS011;11303;50.772;19.670;2024-02-26T00:22:11;68.03;;;33.50;;
22268;SDS011;11303;50.772;19.670;2024-02-26T00:24:12;62.08;;;31.10;;
22268;SDS011;11303;50.772;19.670;2024-02-26T00:26:14;68.25;;;36.22;;
22268;SDS011;11303;50.772;19.670;2024-02-26T00:28:16;58.70;;;26.15;;
22268;SDS011;11303;50.772;19.670;2024-02-26T00:30:18;53.38;;;25.85;;
22268;SDS011;11303;50.772;19.670;2024-02-26T00:32:19;51.58;;;26.52;;
22268;SDS011;11303;50.772;19.670;2024-02-26T00:34:21;54.72;;;26.77;;
22268;SDS011;11303;50.772;19.670;2024-02-26T00:36:23;63.50;;;27.63;;
22268;SDS011;11303;50.772;19.670;2024-02-26T00:38:25;71.38;;;34.55;;
22268;SDS011;11303;50.772;19.670;2024-02-26T00:40:26;63.88;;;29.00;;
22268;SDS011;11303;50.772;19.670;2024-02-26T00:42:28;67.10;;;35.00;;
22268;SDS011;11303;50.772;19.670;2024-02-26T00:44:30;76.97;;;39.90;;
22268;SDS011;11303;50.772;19.670;2024-02-26T00:46:31;78.13;;;42.28;;
22268;SDS011;11303;50.772;19.670;2024-02-26T00:48:33;65.28;;;32.10;;
22268;SDS011;11303;50.772;19.670;2024-02-26T00:50:35;66.63;;;38.65;;
22268;SDS011;11303;50.772;19.670;2024-02-26T00:52:36;69.00;;;35.85;;
22268;SDS011;11303;50.772;19.670;2024-02-26T00:54:38;57.83;;;28.95;;
22268;SDS011;11303;50.772;19.670;2024-02-26T00:56:39;67.32;;;32.58;;
22268;SDS011;11303;50.772;19.670;2024-02-26T00:58:41;59.92;;;26.55;;
22268;SDS011;11303;50.772;19.670;2024-02-26T01:00:43;54.67;;;27.70;;
22268;SDS011;11303;50.772;19.670;2024-02-26T01:02:44;52.28;;;26.77;;
22268;SDS011;11303;50.772;19.670;2024-02-26T01:04:49;56.22;;;29.02;;
22268;SDS011;11303;50.772;19.670;2024-02-26T01:06:51;60.67;;;30.88;;
22268;SDS011;11303;50.772;19.670;2024-02-26T01:08:52;61.90;;;33.17;;
22268;SDS011;11303;50.772;19.670;2024-02-26T01:10:54;70.32;;;36.58;;
22268;SDS011;11303;50.772;19.670;2024-02-26T01:12:56;65.93;;;35.78;;
22268;SDS011;11303;50.772;19.670;2024-02-26T01:14:57;75.43;;;39.90;;
22268;SDS011;11303;50.772;19.670;2024-02-26T01:17:00;93.85;;;44.20;;
22268;SDS011;11303;50.772;19.670;2024-02-26T01:19:01;75.70;;;37.55;;
22268;SDS011;11303;50.772;19.670;2024-02-26T01:21:03;72.07;;;33.88;;
22268;SDS011;11303;50.772;19.670;2024-02-26T01:23:08;69.75;;;33.80;;
22268;SDS011;11303;50.772;19.670;2024-02-26T01:25:09;73.07;;;35.90;;
22268;SDS011;11303;50.772;19.670;2024-02-26T01:27:11;66.13;;;34.88;;
22268;SDS011;11303;50.772;19.670;2024-02-26T01:29:13;66.97;;;33.17;;
22268;SDS011;11303;50.772;19.670;2024-02-26T01:31:15;82.22;;;41.13;;
22268;SDS011;11303;50.772;19.670;2024-02-26T01:33:16;79.88;;;40.50;;
22268;SDS011;11303;50.772;19.670;2024-02-26T01:35:18;77.00;;;39.22;;
22268;SDS011;11303;50.772;19.670;2024-02-26T01:37:21;73.50;;;38.20;;
22268;SDS011;11303;50.772;19.670;2024-02-26T01:39:23;71.22;;;36.08;;
22268;SDS011;11303;50.772;19.670;2024-02-26T01:41:24;72.72;;;34.67;;
22268;SDS011;11303;50.772;19.670;2024-02-26T01:43:26;73.78;;;35.15;;
22268;SDS011;11303;50.772;19.670;2024-02-26T01:45:27;67.20;;;31.80;;
22268;SDS011;11303;50.772;19.670;2024-02-26T01:47:29;65.50;;;29.70;;
22268;SDS011;11303;50.772;19.670;2024-02-26T01:49:31;65.28;;;29.77;;
22268;SDS011;11303;50.772;19.670;2024-02-26T01:51:33;67.88;;;32.10;;
22268;SDS011;11303;50.772;19.670;2024-02-26T01:53:36;76.35;;;36.15;;
22268;SDS011;11303;50.772;19.670;2024-02-26T01:55:38;77.55;;;39.05;;
22268;SDS011;11303;50.772;19.670;2024-02-26T01:57:42;80.07;;;35.30;;
22268;SDS011;11303;50.772;19.670;2024-02-26T01:59:45;68.53;;;35.78;;
22268;SDS011;11303;50.772;19.670;2024-02-26T02:01:47;74.78;;;34.58;;
22268;SDS011;11303;50.772;19.670;2024-02-26T02:03:54;71.35;;;32.88;;
22268;SDS011;11303;50.772;19.670;2024-02-26T02:05:57;65.63;;;33.30;;
22268;SDS011;11303;50.772;19.670;2024-02-26T02:07:59;70.25;;;33.17;;
22268;SDS011;11303;50.772;19.670;2024-02-26T02:10:01;65.10;;;35.70;;
22268;SDS011;11303;50.772;19.670;2024-02-26T02:12:04;82.45;;;42.15;;
22268;SDS011;11303;50.772;19.670;2024-02-26T02:14:05;88.32;;;45.40;;
22268;SDS011;11303;50.772;19.670;2024-02-26T02:16:07;109.25;;;57.53;;
22268;SDS011;11303;50.772;19.670;2024-02-26T02:18:09;99.15;;;51.15;;
22268;SDS011;11303;50.772;19.670;2024-02-26T02:20:24;101.45;;;49.10;;
22268;SDS011;11303;50.772;19.670;2024-02-26T02:22:38;98.20;;;49.97;;
22268;SDS011;11303;50.772;19.670;2024-02-26T02:24:40;102.22;;;52.15;;
22268;SDS011;11303;50.772;19.670;2024-02-26T02:26:41;95.57;;;48.60;;
22268;SDS011;11303;50.772;19.670;2024-02-26T02:28:43;93.97;;;51.03;;
22268;SDS011;11303;50.772;19.670;2024-02-26T02:30:45;93.80;;;46.28;;
22268;SDS011;11303;50.772;19.670;2024-02-26T02:32:46;240.32;;;120.50;;
22268;SDS011;11303;50.772;19.670;2024-02-26T02:34:48;145.75;;;70.90;;
22268;SDS011;11303;50.772;19.670;2024-02-26T02:36:53;117.13;;;58.92;;
22268;SDS011;11303;50.772;19.670;2024-02-26T02:38:55;131.98;;;73.22;;
22268;SDS011;11303;50.772;19.670;2024-02-26T02:40:57;101.10;;;53.17;;
22268;SDS011;11303;50.772;19.670;2024-02-26T02:42:59;110.80;;;51.63;;
22268;SDS011;11303;50.772;19.670;2024-02-26T02:45:01;91.07;;;44.47;;
22268;SDS011;11303;50.772;19.670;2024-02-26T02:47:03;155.73;;;80.80;;
22268;SDS011;11303;50.772;19.670;2024-02-26T02:49:08;99.13;;;49.58;;
22268;SDS011;11303;50.772;19.670;2024-02-26T02:51:11;107.00;;;58.90;;
22268;SDS011;11303;50.772;19.670;2024-02-26T02:53:12;110.70;;;53.72;;
22268;SDS011;11303;50.772;19.670;2024-02-26T02:55:14;84.75;;;45.05;;
22268;SDS011;11303;50.772;19.670;2024-02-26T02:57:16;90.03;;;46.75;;
22268;SDS011;11303;50.772;19.670;2024-02-26T02:59:17;82.93;;;45.35;;
22268;SDS011;11303;50.772;19.670;2024-02-26T03:01:19;86.85;;;46.13;;
22268;SDS011;11303;50.772;19.670;2024-02-26T03:03:21;71.75;;;38.55;;
22268;SDS011;11303;50.772;19.670;2024-02-26T03:05:25;72.97;;;37.75;;
22268;SDS011;11303;50.772;19.670;2024-02-26T03:07:27;60.30;;;34.15;;
22268;SDS011;11303;50.772;19.670;2024-02-26T03:09:28;65.28;;;34.00;;
22268;SDS011;11303;50.772;19.670;2024-02-26T03:11:30;70.10;;;35.28;;
22268;SDS011;11303;50.772;19.670;2024-02-26T03:13:32;68.63;;;36.55;;
22268;SDS011;11303;50.772;19.670;2024-02-26T03:15:33;60.63;;;34.30;;
22268;SDS011;11303;50.772;19.670;2024-02-26T03:17:35;66.43;;;32.33;;
22268;SDS011;11303;50.772;19.670;2024-02-26T03:19:36;71.63;;;33.08;;
22268;SDS011;11303;50.772;19.670;2024-02-26T03:21:38;63.10;;;32.35;;
22268;SDS011;11303;50.772;19.670;2024-02-26T03:23:40;66.68;;;34.65;;
22268;SDS011;11303;50.772;19.670;2024-02-26T03:25:42;78.25;;;40.38;;
22268;SDS011;11303;50.772;19.670;2024-02-26T03:27:45;82.82;;;39.45;;
22268;SDS011;11303;50.772;19.670;2024-02-26T03:29:47;81.43;;;41.97;;
22268;SDS011;11303;50.772;19.670;2024-02-26T03:31:49;96.13;;;47.58;;
22268;SDS011;11303;50.772;19.670;2024-02-26T03:33:51;80.00;;;38.95;;
22268;SDS011;11303;50.772;19.670;2024-02-26T03:35:52;72.88;;;37.90;;
22268;SDS011;11303;50.772;19.670;2024-02-26T03:37:54;71.15;;;36.00;;
22268;SDS011;11303;50.772;19.670;2024-02-26T03:39:56;74.43;;;40.20;;
22268;SDS011;11303;50.772;19.670;2024-02-26T03:41:59;78.47;;;39.60;;
22268;SDS011;11303;50.772;19.670;2024-02-26T03:44:01;71.90;;;39.10;;
22268;SDS011;11303;50.772;19.670;2024-02-26T03:46:02;81.18;;;39.80;;
22268;SDS011;11303;50.772;19.670;2024-02-26T03:48:04;78.03;;;42.78;;
22268;SDS011;11303;50.772;19.670;2024-02-26T03:50:07;75.13;;;39.00;;
22268;SDS011;11303;50.772;19.670;2024-02-26T03:52:09;81.30;;;42.25;;
22268;SDS011;11303;50.772;19.670;2024-02-26T03:54:11;76.30;;;40.25;;
22268;SDS011;11303;50.772;19.670;2024-02-26T03:56:12;90.40;;;46.03;;
22268;SDS011;11303;50.772;19.670;2024-02-26T03:58:17;80.97;;;38.38;;
22268;SDS011;11303;50.772;19.670;2024-02-26T04:00:19;76.80;;;37.42;;
22268;SDS011;11303;50.772;19.670;2024-02-26T04:02:23;85.20;;;40.15;;
22268;SDS011;11303;50.772;19.670;2024-02-26T04:04:26;70.22;;;34.90;;
22268;SDS011;11303;50.772;19.670;2024-02-26T04:06:28;69.15;;;34.47;;
22268;SDS011;11303;50.772;19.670;2024-02-26T04:08:30;71.68;;;35.35;;
22268;SDS011;11303;50.772;19.670;2024-02-26T04:10:32;80.65;;;38.47;;
22268;SDS011;11303;50.772;19.670;2024-02-26T04:12:38;98.35;;;44.83;;
22268;SDS011;11303;50.772;19.670;2024-02-26T04:14:40;93.78;;;51.58;;
22268;SDS011;11303;50.772;19.670;2024-02-26T04:16:42;101.43;;;53.75;;
22268;SDS011;11303;50.772;19.670;2024-02-26T04:18:43;91.45;;;48.75;;
22268;SDS011;11303;50.772;19.670;2024-02-26T04:20:45;89.72;;;46.97;;
22268;SDS011;11303;50.772;19.670;2024-02-26T04:22:47;89.25;;;45.92;;
22268;SDS011;11303;50.772;19.670;2024-02-26T04:24:48;74.25;;;41.38;;
22268;SDS011;11303;50.772;19.670;2024-02-26T04:26:50;89.85;;;43.55;;
22268;SDS011;11303;50.772;19.670;2024-02-26T04:28:51;75.38;;;39.28;;
22268;SDS011;11303;50.772;19.670;2024-02-26T04:30:54;98.78;;;50.58;;
22268;SDS011;11303;50.772;19.670;2024-02-26T04:32:57;86.70;;;43.17;;
22268;SDS011;11303;50.772;19.670;2024-02-26T04:34:58;77.70;;;38.42;;
22268;SDS011;11303;50.772;19.670;2024-02-26T04:37:00;83.80;;;38.92;;
22268;SDS011;11303;50.772;19.670;2024-02-26T04:39:02;83.45;;;40.05;;
22268;SDS011;11303;50.772;19.670;2024-02-26T04:41:04;73.13;;;38.83;;
22268;SDS011;11303;50.772;19.670;2024-02-26T04:43:05;84.32;;;40.67;;
22268;SDS011;11303;50.772;19.670;2024-02-26T04:45:07;79.22;;;42.20;;
22268;SDS011;11303;50.772;19.670;2024-02-26T04:47:09;81.10;;;42.78;;
22268;SDS011;11303;50.772;19.670;2024-02-26T04:49:12;95.03;;;48.95;;
22268;SDS011;11303;50.772;19.670;2024-02-26T04:51:13;90.65;;;46.35;;
22268;SDS011;11303;50.772;19.670;2024-02-26T04:53:15;99.10;;;51.40;;
22268;SDS011;11303;50.772;19.670;2024-02-26T04:55:16;99.40;;;51.90;;
22268;SDS011;11303;50.772;19.670;2024-02-26T04:57:18;101.32;;;50.97;;
22268;SDS011;11303;50.772;19.670;2024-02-26T04:59:20;110.03;;;58.38;;
22268;SDS011;11303;50.772;19.670;2024-02-26T05:01:21;116.00;;;63.45;;
22268;SDS011;11303;50.772;19.670;2024-02-26T05:03:23;162.25;;;92.22;;
22268;SDS011;11303;50.772;19.670;2024-02-26T05:05:25;229.35;;;113.18;;
22268;SDS011;11303;50.772;19.670;2024-02-26T05:07:27;187.73;;;95.80;;
22268;SDS011;11303;50.772;19.670;2024-02-26T05:09:29;164.60;;;85.97;;
22268;SDS011;11303;50.772;19.670;2024-02-26T05:11:31;187.77;;;95.53;;
22268;SDS011;11303;50.772;19.670;2024-02-26T05:13:32;192.05;;;91.32;;
22268;SDS011;11303;50.772;19.670;2024-02-26T05:15:34;205.27;;;98.78;;
22268;SDS011;11303;50.772;19.670;2024-02-26T05:17:36;270.23;;;114.95;;
22268;SDS011;11303;50.772;19.670;2024-02-26T05:19:38;578.28;;;220.85;;
22268;SDS011;11303;50.772;19.670;2024-02-26T05:21:40;666.17;;;259.52;;
22268;SDS011;11303;50.772;19.670;2024-02-26T05:23:43;215.43;;;98.10;;
22268;SDS011;11303;50.772;19.670;2024-02-26T05:25:46;189.82;;;92.75;;
22268;SDS011;11303;50.772;19.670;2024-02-26T05:27:49;221.68;;;105.32;;
22268;SDS011;11303;50.772;19.670;2024-02-26T05:29:50;199.20;;;98.95;;
22268;SDS011;11303;50.772;19.670;2024-02-26T05:31:53;167.00;;;81.00;;
22268;SDS011;11303;50.772;19.670;2024-02-26T05:33:55;146.38;;;71.75;;
22268;SDS011;11303;50.772;19.670;2024-02-26T05:35:57;172.70;;;85.07;;
22268;SDS011;11303;50.772;19.670;2024-02-26T05:38:05;169.65;;;83.93;;
22268;SDS011;11303;50.772;19.670;2024-02-26T05:40:07;153.20;;;81.15;;
22268;SDS011;11303;50.772;19.670;2024-02-26T05:42:09;152.73;;;75.07;;
22268;SDS011;11303;50.772;19.670;2024-02-26T05:44:11;151.60;;;74.97;;
22268;SDS011;11303;50.772;19.670;2024-02-26T05:46:12;146.88;;;72.78;;
22268;SDS011;11303;50.772;19.670;2024-02-26T05:48:14;146.75;;;74.95;;
22268;SDS011;11303;50.772;19.670;2024-02-26T05:50:16;155.02;;;77.95;;
22268;SDS011;11303;50.772;19.670;2024-02-26T05:52:17;167.07;;;83.72;;
22268;SDS011;11303;50.772;19.670;2024-02-26T05:54:19;195.57;;;87.28;;
22268;SDS011;11303;50.772;19.670;2024-02-26T05:56:21;180.65;;;89.97;;
22268;SDS011;11303;50.772;19.670;2024-02-26T05:58:23;191.05;;;91.18;;
22268;SDS011;11303;50.772;19.670;2024-02-26T06:00:25;156.82;;;76.47;;
22268;SDS011;11303;50.772;19.670;2024-02-26T06:02:26;171.93;;;81.60;;
22268;SDS011;11303;50.772;19.670;2024-02-26T06:04:28;148.40;;;73.07;;
22268;SDS011;11303;50.772;19.670;2024-02-26T06:06:30;123.78;;;64.07;;
22268;SDS011;11303;50.772;19.670;2024-02-26T06:08:31;109.25;;;55.05;;
22268;SDS011;11303;50.772;19.670;2024-02-26T06:10:33;111.90;;;53.70;;
22268;SDS011;11303;50.772;19.670;2024-02-26T06:12:35;96.30;;;48.72;;
22268;SDS011;11303;50.772;19.670;2024-02-26T06:14:37;92.22;;;45.50;;
22268;SDS011;11303;50.772;19.670;2024-02-26T06:16:38;97.07;;;41.72;;
22268;SDS011;11303;50.772;19.670;2024-02-26T06:18:41;90.00;;;40.75;;
22268;SDS011;11303;50.772;19.670;2024-02-26T06:20:43;92.70;;;38.90;;
22268;SDS011;11303;50.772;19.670;2024-02-26T06:22:44;78.65;;;37.17;;
22268;SDS011;11303;50.772;19.670;2024-02-26T06:24:46;68.50;;;30.17;;
22268;SDS011;11303;50.772;19.670;2024-02-26T06:26:48;71.32;;;35.42;;
22268;SDS011;11303;50.772;19.670;2024-02-26T06:28:49;99.20;;;45.63;;
22268;SDS011;11303;50.772;19.670;2024-02-26T06:30:53;130.35;;;48.97;;
22268;SDS011;11303;50.772;19.670;2024-02-26T06:32:55;75.25;;;40.20;;
22268;SDS011;11303;50.772;19.670;2024-02-26T06:34:57;82.28;;;38.33;;
22268;SDS011;11303;50.772;19.670;2024-02-26T06:36:59;77.57;;;35.33;;
22268;SDS011;11303;50.772;19.670;2024-02-26T06:39:00;83.15;;;39.15;;
22268;SDS011;11303;50.772;19.670;2024-02-26T06:41:02;87.65;;;39.22;;
22268;SDS011;11303;50.772;19.670;2024-02-26T06:43:04;92.57;;;40.00;;
22268;SDS011;11303;50.772;19.670;2024-02-26T06:45:06;89.90;;;43.28;;
22268;SDS011;11303;50.772;19.670;2024-02-26T06:47:09;82.32;;;42.17;;
22268;SDS011;11303;50.772;19.670;2024-02-26T06:49:10;136.30;;;67.13;;
22268;SDS011;11303;50.772;19.670;2024-02-26T06:51:12;144.07;;;75.35;;
22268;SDS011;11303;50.772;19.670;2024-02-26T06:53:13;145.88;;;78.40;;
22268;SDS011;11303;50.772;19.670;2024-02-26T06:55:15;119.78;;;66.32;;
22268;SDS011;11303;50.772;19.670;2024-02-26T06:57:16;111.05;;;61.75;;
22268;SDS011;11303;50.772;19.670;2024-02-26T06:59:18;100.93;;;57.70;;
22268;SDS011;11303;50.772;19.670;2024-02-26T07:01:21;85.80;;;52.90;;
22268;SDS011;11303;50.772;19.670;2024-02-26T07:03:22;83.75;;;52.22;;
22268;SDS011;11303;50.772;19.670;2024-02-26T07:05:25;46.45;;;26.73;;
22268;SDS011;11303;50.772;19.670;2024-02-26T07:07:27;47.55;;;24.63;;
22268;SDS011;11303;50.772;19.670;2024-02-26T07:09:29;58.45;;;28.85;;
22268;SDS011;11303;50.772;19.670;2024-02-26T07:11:31;50.08;;;23.60;;
22268;SDS011;11303;50.772;19.670;2024-02-26T07:13:32;50.38;;;26.08;;
22268;SDS011;11303;50.772;19.670;2024-02-26T07:15:34;53.15;;;29.33;;
22268;SDS011;11303;50.772;19.670;2024-02-26T07:17:36;86.70;;;44.20;;
22268;SDS011;11303;50.772;19.670;2024-02-26T07:19:37;71.32;;;37.90;;
22268;SDS011;11303;50.772;19.670;2024-02-26T07:21:39;61.42;;;33.85;;
22268;SDS011;11303;50.772;19.670;2024-02-26T07:23:41;113.80;;;55.42;;
22268;SDS011;11303;50.772;19.670;2024-02-26T07:25:43;70.93;;;37.85;;
22268;SDS011;11303;50.772;19.670;2024-02-26T07:27:48;79.75;;;39.13;;
22268;SDS011;11303;50.772;19.670;2024-02-26T07:29:50;63.50;;;32.35;;
22268;SDS011;11303;50.772;19.670;2024-02-26T07:31:52;83.22;;;39.75;;
22268;SDS011;11303;50.772;19.670;2024-02-26T07:33:53;69.43;;;34.30;;
22268;SDS011;11303;50.772;19.670;2024-02-26T07:35:55;43.78;;;23.50;;
22268;SDS011;11303;50.772;19.670;2024-02-26T07:37:57;46.72;;;26.13;;
22268;SDS011;11303;50.772;19.670;2024-02-26T07:39:58;43.60;;;23.27;;
22268;SDS011;11303;50.772;19.670;2024-02-26T07:42:00;43.35;;;24.23;;
22268;SDS011;11303;50.772;19.670;2024-02-26T07:44:02;41.92;;;23.52;;
22268;SDS011;11303;50.772;19.670;2024-02-26T07:46:03;32.63;;;19.13;;
22268;SDS011;11303;50.772;19.670;2024-02-26T07:48:05;31.50;;;18.70;;
22268;SDS011;11303;50.772;19.670;2024-02-26T07:50:07;32.38;;;20.02;;
22268;SDS011;11303;50.772;19.670;2024-02-26T07:52:10;29.75;;;17.13;;
22268;SDS011;11303;50.772;19.670;2024-02-26T07:54:12;60.85;;;35.42;;
22268;SDS011;11303;50.772;19.670;2024-02-26T07:56:14;32.55;;;18.08;;
22268;SDS011;11303;50.772;19.670;2024-02-26T07:58:15;27.23;;;15.32;;
22268;SDS011;11303;50.772;19.670;2024-02-26T08:00:17;26.05;;;15.57;;
22268;SDS011;11303;50.772;19.670;2024-02-26T08:02:19;24.30;;;14.52;;
22268;SDS011;11303;50.772;19.670;2024-02-26T08:04:20;23.65;;;14.50;;
22268;SDS011;11303;50.772;19.670;2024-02-26T08:06:23;26.60;;;16.38;;
22268;SDS011;11303;50.772;19.670;2024-02-26T08:08:26;23.85;;;14.65;;
22268;SDS011;11303;50.772;19.670;2024-02-26T08:10:27;26.25;;;14.20;;
22268;SDS011;11303;50.772;19.670;2024-02-26T08:12:33;21.90;;;13.95;;
22268;SDS011;11303;50.772;19.670;2024-02-26T08:14:35;30.05;;;15.43;;
22268;SDS011;11303;50.772;19.670;2024-02-26T08:16:36;33.00;;;18.38;;
22268;SDS011;11303;50.772;19.670;2024-02-26T08:18:38;25.75;;;16.83;;
22268;SDS011;11303;50.772;19.670;2024-02-26T08:20:40;25.17;;;14.88;;
22268;SDS011;11303;50.772;19.670;2024-02-26T08:22:41;65.10;;;29.58;;
22268;SDS011;11303;50.772;19.670;2024-02-26T08:24:43;47.75;;;26.95;;
22268;SDS011;11303;50.772;19.670;2024-02-26T08:26:45;27.45;;;16.48;;
22268;SDS011;11303;50.772;19.670;2024-02-26T08:28:46;22.38;;;13.80;;
22268;SDS011;11303;50.772;19.670;2024-02-26T08:30:49;47.33;;;24.42;;
22268;SDS011;11303;50.772;19.670;2024-02-26T08:32:50;20.38;;;12.82;;
22268;SDS011;11303;50.772;19.670;2024-02-26T08:34:53;22.10;;;13.85;;
22268;SDS011;11303;50.772;19.670;2024-02-26T08:36:54;23.75;;;13.40;;
22268;SDS011;11303;50.772;19.670;2024-02-26T08:38:56;22.65;;;14.25;;
22268;SDS011;11303;50.772;19.670;2024-02-26T08:40:58;35.03;;;17.55;;
22268;SDS011;11303;50.772;19.670;2024-02-26T08:42:59;30.83;;;18.25;;
22268;SDS011;11303;50.772;19.670;2024-02-26T08:45:02;33.30;;;18.38;;
22268;SDS011;11303;50.772;19.670;2024-02-26T08:47:04;44.70;;;21.17;;
22268;SDS011;11303;50.772;19.670;2024-02-26T08:49:06;30.67;;;17.83;;
22268;SDS011;11303;50.772;19.670;2024-02-26T08:51:08;27.65;;;15.45;;
22268;SDS011;11303;50.772;19.670;2024-02-26T08:53:10;25.75;;;14.82;;
22268;SDS011;11303;50.772;19.670;2024-02-26T08:55:13;22.85;;;13.60;;
22268;SDS011;11303;50.772;19.670;2024-02-26T08:57:15;25.17;;;13.82;;
22268;SDS011;11303;50.772;19.670;2024-02-26T08:59:17;26.15;;;15.45;;
22268;SDS011;11303;50.772;19.670;2024-02-26T09:01:23;21.25;;;13.35;;
22268;SDS011;11303;50.772;19.670;2024-02-26T09:03:25;33.20;;;17.25;;
22268;SDS011;11303;50.772;19.670;2024-02-26T09:05:27;25.90;;;15.48;;
22268;SDS011;11303;50.772;19.670;2024-02-26T09:07:29;32.10;;;15.65;;
22268;SDS011;11303;50.772;19.670;2024-02-26T09:09:30;33.03;;;17.15;;
22268;SDS011;11303;50.772;19.670;2024-02-26T09:11:32;31.83;;;15.57;;
22268;SDS011;11303;50.772;19.670;2024-02-26T09:13:33;24.55;;;14.38;;
22268;SDS011;11303;50.772;19.670;2024-02-26T09:15:35;32.08;;;18.40;;
22268;SDS011;11303;50.772;19.670;2024-02-26T09:17:37;32.97;;;18.10;;
22268;SDS011;11303;50.772;19.670;2024-02-26T09:19:39;46.25;;;26.30;;
22268;SDS011;11303;50.772;19.670;2024-02-26T09:21:44;31.05;;;15.98;;
22268;SDS011;11303;50.772;19.670;2024-02-26T09:23:45;22.77;;;10.98;;
22268;SDS011;11303;50.772;19.670;2024-02-26T09:25:47;20.55;;;11.90;;
22268;SDS011;11303;50.772;19.670;2024-02-26T09:27:49;25.83;;;13.70;;
22268;SDS011;11303;50.772;19.670;2024-02-26T09:29:50;23.42;;;13.60;;
22268;SDS011;11303;50.772;19.670;2024-02-26T09:31:52;26.75;;;14.30;;
22268;SDS011;11303;50.772;19.670;2024-02-26T09:33:53;23.63;;;13.73;;
22268;SDS011;11303;50.772;19.670;2024-02-26T09:35:58;16.02;;;10.25;;
22268;SDS011;11303;50.772;19.670;2024-02-26T09:38:01;19.20;;;11.55;;
22268;SDS011;11303;50.772;19.670;2024-02-26T09:40:03;15.65;;;10.45;;
22268;SDS011;11303;50.772;19.670;2024-02-26T09:42:05;18.48;;;11.13;;
22268;SDS011;11303;50.772;19.670;2024-02-26T09:44:11;16.15;;;10.80;;
22268;SDS011;11303;50.772;19.670;2024-02-26T09:46:16;13.88;;;9.18;;
22268;SDS011;11303;50.772;19.670;2024-02-26T09:48:21;16.52;;;10.45;;
22268;SDS011;11303;50.772;19.670;2024-02-26T09:50:24;12.85;;;9.38;;
22268;SDS011;11303;50.772;19.670;2024-02-26T09:52:26;14.32;;;8.25;;
22268;SDS011;11303;50.772;19.670;2024-02-26T09:54:29;14.98;;;8.63;;
22268;SDS011;11303;50.772;19.670;2024-02-26T09:56:32;10.55;;;7.22;;
22268;SDS011;11303;50.772;19.670;2024-02-26T09:58:34;12.13;;;8.07;;
22268;SDS011;11303;50.772;19.670;2024-02-26T10:00:37;14.82;;;7.70;;
22268;SDS011;11303;50.772;19.670;2024-02-26T10:02:40;16.45;;;10.93;;
22268;SDS011;11303;50.772;19.670;2024-02-26T10:04:42;13.57;;;9.82;;
22268;SDS011;11303;50.772;19.670;2024-02-26T10:06:51;12.82;;;7.97;;
22268;SDS011;11303;50.772;19.670;2024-02-26T10:08:54;16.92;;;10.63;;
22268;SDS011;11303;50.772;19.670;2024-02-26T10:10:56;86.75;;;41.47;;
22268;SDS011;11303;50.772;19.670;2024-02-26T10:12:58;38.05;;;18.75;;
22268;SDS011;11303;50.772;19.670;2024-02-26T10:15:01;264.38;;;123.57;;
22268;SDS011;11303;50.772;19.670;2024-02-26T10:17:03;31.58;;;14.13;;
22268;SDS011;11303;50.772;19.670;2024-02-26T10:19:08;16.17;;;9.50;;
22268;SDS011;11303;50.772;19.670;2024-02-26T10:21:11;20.00;;;9.77;;
22268;SDS011;11303;50.772;19.670;2024-02-26T10:23:13;14.77;;;10.40;;
22268;SDS011;11303;50.772;19.670;2024-02-26T10:25:15;18.27;;;10.98;;
22268;SDS011;11303;50.772;19.670;2024-02-26T10:27:16;22.35;;;11.32;;
22268;SDS011;11303;50.772;19.670;2024-02-26T10:29:18;19.80;;;11.20;;
22268;SDS011;11303;50.772;19.670;2024-02-26T10:31:21;18.83;;;10.05;;
22268;SDS011;11303;50.772;19.670;2024-02-26T10:33:23;21.00;;;10.30;;
22268;SDS011;11303;50.772;19.670;2024-02-26T10:35:26;23.30;;;11.25;;
22268;SDS011;11303;50.772;19.670;2024-02-26T10:37:30;18.17;;;9.40;;
22268;SDS011;11303;50.772;19.670;2024-02-26T10:39:31;15.88;;;9.82;;
22268;SDS011;11303;50.772;19.670;2024-02-26T10:41:33;24.70;;;12.93;;
22268;SDS011;11303;50.772;19.670;2024-02-26T10:43:35;20.73;;;12.05;;
22268;SDS011;11303;50.772;19.670;2024-02-26T10:45:37;19.90;;;11.43;;
22268;SDS011;11303;50.772;19.670;2024-02-26T10:47:40;18.73;;;11.00;;
22268;SDS011;11303;50.772;19.670;2024-02-26T10:49:46;23.92;;;14.10;;
22268;SDS011;11303;50.772;19.670;2024-02-26T10:51:52;17.67;;;11.00;;
22268;SDS011;11303;50.772;19.670;2024-02-26T10:53:58;25.60;;;12.13;;
22268;SDS011;11303;50.772;19.670;2024-02-26T10:56:04;24.55;;;12.07;;
22268;SDS011;11303;50.772;19.670;2024-02-26T10:58:07;20.88;;;10.65;;
22268;SDS011;11303;50.772;19.670;2024-02-26T11:00:14;27.10;;;11.60;;
22268;SDS011;11303;50.772;19.670;2024-02-26T11:02:17;21.95;;;11.73;;
22268;SDS011;11303;50.772;19.670;2024-02-26T11:04:19;20.30;;;11.05;;
22268;SDS011;11303;50.772;19.670;2024-02-26T11:06:22;19.73;;;10.10;;
22268;SDS011;11303;50.772;19.670;2024-02-26T11:08:24;13.07;;;8.90;;
22268;SDS011;11303;50.772;19.670;2024-02-26T11:10:27;11.73;;;8.52;;
22268;SDS011;11303;50.772;19.670;2024-02-26T11:12:32;26.40;;;12.88;;
22268;SDS011;11303;50.772;19.670;2024-02-26T11:14:41;16.00;;;9.20;;
22268;SDS011;11303;50.772;19.670;2024-02-26T11:16:45;15.77;;;8.60;;
22268;SDS011;11303;50.772;19.670;2024-02-26T11:18:49;13.63;;;9.00;;
22268;SDS011;11303;50.772;19.670;2024-02-26T11:20:51;13.63;;;9.32;;
22268;SDS011;11303;50.772;19.670;2024-02-26T11:22:56;14.07;;;9.60;;
22268;SDS011;11303;50.772;19.670;2024-02-26T11:24:58;22.83;;;9.85;;
22268;SDS011;11303;50.772;19.670;2024-02-26T11:27:02;20.63;;;11.07;;
22268;SDS011;11303;50.772;19.670;2024-02-26T11:29:08;14.57;;;9.75;;
22268;SDS011;11303;50.772;19.670;2024-02-26T11:31:12;20.13;;;11.70;;
22268;SDS011;11303;50.772;19.670;2024-02-26T11:33:14;13.35;;;8.25;;
22268;SDS011;11303;50.772;19.670;2024-02-26T11:35:17;14.30;;;8.48;;
22268;SDS011;11303;50.772;19.670;2024-02-26T11:37:20;17.50;;;11.38;;
22268;SDS011;11303;50.772;19.670;2024-02-26T11:39:22;19.00;;;11.32;;
22268;SDS011;11303;50.772;19.670;2024-02-26T11:41:24;15.52;;;9.57;;
22268;SDS011;11303;50.772;19.670;2024-02-26T11:45:56;14.20;;;8.45;;
22268;SDS011;11303;50.772;19.670;2024-02-26T11:48:00;10.13;;;6.20;;